createdAt,value
2022-12-09T00:01:12.726Z,100.00
2022-12-09T00:03:40.275Z,100.00
2022-12-09T00:06:25.140Z,100.00
2022-12-09T00:08:54.956Z,100.00
2022-12-09T00:11:21.929Z,100.00
2022-12-09T00:13:50.429Z,100.00
2022-12-09T00:16:17.758Z,100.00
2022-12-09T00:18:44.918Z,100.00
2022-12-09T00:21:25.941Z,100.00
2022-12-09T00:23:54.147Z,100.00
2022-12-09T00:26:25.492Z,100.00
2022-12-09T00:28:53.236Z,100.00
2022-12-09T00:31:24.687Z,100.00
2022-12-09T00:33:53.244Z,100.00
2022-12-09T00:36:21.876Z,100.00
2022-12-09T00:38:49.004Z,100.00
2022-12-09T00:41:16.046Z,100.00
2022-12-09T00:43:43.773Z,100.00
2022-12-09T00:46:12.505Z,100.00
2022-12-09T00:48:39.723Z,100.00
2022-12-09T00:51:08.207Z,100.00
2022-12-09T00:53:35.235Z,100.00
2022-12-09T00:56:02.267Z,100.00
2022-12-09T00:58:29.130Z,100.00
2022-12-09T01:00:56.289Z,100.00
2022-12-09T01:03:26.211Z,100.00
2022-12-09T01:05:53.111Z,100.00
2022-12-09T01:08:19.886Z,100.00
2022-12-09T01:10:47.353Z,100.00
2022-12-09T01:13:18.192Z,100.00
2022-12-09T01:15:45.371Z,100.00
2022-12-09T01:18:14.144Z,100.00
2022-12-09T01:20:40.997Z,100.00
2022-12-09T01:23:07.699Z,100.00
2022-12-09T01:25:34.363Z,100.00
2022-12-09T01:28:01.049Z,100.00
2022-12-09T01:30:27.791Z,100.00
2022-12-09T01:32:54.614Z,100.00
2022-12-09T01:35:21.788Z,100.00
2022-12-09T01:37:48.506Z,100.00
2022-12-09T01:40:17.751Z,100.00
2022-12-09T01:42:45.035Z,100.00
2022-12-09T01:45:21.569Z,100.00
2022-12-09T01:47:55.076Z,100.00
2022-12-09T01:50:22.515Z,100.00
2022-12-09T01:52:50.547Z,100.00
2022-12-09T01:55:18.131Z,100.00
2022-12-09T01:57:45.691Z,100.00
2022-12-09T02:00:13.664Z,100.00
2022-12-09T02:02:41.870Z,100.00
2022-12-09T02:05:09.456Z,100.00
2022-12-09T02:07:36.393Z,100.00
2022-12-09T02:10:06.564Z,100.00
2022-12-09T02:12:36.904Z,100.00
2022-12-09T02:15:09.007Z,100.00
2022-12-09T02:17:48.815Z,100.00
2022-12-09T02:20:23.725Z,100.00
2022-12-09T02:23:11.063Z,100.00
2022-12-09T02:25:57.432Z,100.00
2022-12-09T02:28:52.188Z,100.00
2022-12-09T02:31:21.853Z,100.00
2022-12-09T02:33:54.351Z,100.00
2022-12-09T02:36:27.846Z,100.00
2022-12-09T02:38:54.656Z,100.00
2022-12-09T02:41:29.366Z,100.00
2022-12-09T02:44:04.394Z,100.00
2022-12-09T02:46:32.953Z,100.00
2022-12-09T02:49:00.545Z,100.00
2022-12-09T02:51:30.983Z,100.00
2022-12-09T02:54:04.120Z,100.00
2022-12-09T02:56:32.411Z,100.00
2022-12-09T02:58:59.171Z,100.00
2022-12-09T03:01:42.907Z,100.00
2022-12-09T03:04:17.790Z,100.00
2022-12-09T03:06:51.588Z,100.00
2022-12-09T03:09:27.487Z,100.00
2022-12-09T03:11:56.297Z,100.00
2022-12-09T03:14:29.698Z,100.00
2022-12-09T03:17:26.038Z,100.00
2022-12-09T03:20:00.886Z,100.00
2022-12-09T03:22:29.604Z,100.00
2022-12-09T03:25:08.750Z,100.00
2022-12-09T03:27:53.664Z,100.00
2022-12-09T03:30:20.565Z,100.00
2022-12-09T03:32:48.037Z,100.00
2022-12-09T03:35:21.369Z,100.00
2022-12-09T03:37:51.287Z,100.00
2022-12-09T03:40:24.338Z,100.00
2022-12-09T03:43:05.523Z,100.00
2022-12-09T03:45:33.455Z,100.00
2022-12-09T03:48:02.123Z,100.00
2022-12-09T03:50:36.035Z,100.00
2022-12-09T03:53:21.534Z,100.00
2022-12-09T03:55:56.252Z,100.00
2022-12-09T03:58:23.587Z,100.00
2022-12-09T04:00:51.132Z,100.00
2022-12-09T04:03:18.824Z,100.00
2022-12-09T04:05:45.869Z,100.00
2022-12-09T04:08:12.938Z,100.00
2022-12-09T04:10:39.769Z,100.00
2022-12-09T04:13:06.785Z,100.00
2022-12-09T04:15:33.501Z,100.00
2022-12-09T04:18:00.609Z,100.00
2022-12-09T04:20:30.423Z,100.00
2022-12-09T04:22:57.244Z,100.00
2022-12-09T04:25:23.907Z,100.00
2022-12-09T04:27:50.589Z,100.00
2022-12-09T04:30:17.231Z,100.00
2022-12-09T04:32:44.288Z,100.00
2022-12-09T04:35:11.312Z,100.00
2022-12-09T04:37:38.508Z,100.00
2022-12-09T04:40:07.842Z,100.00
2022-12-09T04:42:34.800Z,100.00
2022-12-09T04:45:02.232Z,100.00
2022-12-09T04:47:29.397Z,100.00
2022-12-09T04:49:56.384Z,100.00
2022-12-09T04:52:23.454Z,100.00
2022-12-09T04:54:51.044Z,100.00
2022-12-09T04:57:19.011Z,100.00
2022-12-09T04:59:45.841Z,100.00
2022-12-09T05:02:15.808Z,100.00
2022-12-09T05:04:43.192Z,100.00
2022-12-09T05:07:11.271Z,100.00
2022-12-09T05:09:38.584Z,100.00
2022-12-09T05:12:05.922Z,100.00
2022-12-09T05:14:32.863Z,100.00
2022-12-09T05:16:59.528Z,100.00
2022-12-09T05:19:26.580Z,100.00
2022-12-09T05:21:56.332Z,100.00
2022-12-09T05:24:23.156Z,100.00
2022-12-09T05:26:50.736Z,100.00
2022-12-09T05:29:22.801Z,100.00
2022-12-09T05:31:51.778Z,100.00
2022-12-09T05:34:19.404Z,100.00
2022-12-09T05:36:46.788Z,100.00
2022-12-09T05:39:13.949Z,100.00
2022-12-09T05:41:40.651Z,100.00
2022-12-09T05:44:07.594Z,100.00
2022-12-09T05:46:34.463Z,100.00
2022-12-09T05:49:01.373Z,100.00
2022-12-09T05:51:30.598Z,100.00
2022-12-09T05:54:01.162Z,100.00
2022-12-09T05:56:28.393Z,100.00
2022-12-09T05:58:56.511Z,100.00
2022-12-09T06:01:25.002Z,100.00
2022-12-09T06:03:53.105Z,100.00
2022-12-09T06:06:22.819Z,100.00
2022-12-09T06:08:50.156Z,100.00
2022-12-09T06:11:21.938Z,100.00
2022-12-09T06:13:50.677Z,100.00
2022-12-09T06:16:19.810Z,100.00
2022-12-09T06:18:47.598Z,100.00
2022-12-09T06:21:16.979Z,100.00
2022-12-09T06:23:43.739Z,100.00
2022-12-09T06:26:17.919Z,100.00
2022-12-09T06:28:45.086Z,100.00
2022-12-09T06:31:12.304Z,100.00
2022-12-09T06:33:54.966Z,100.00
2022-12-09T06:36:23.522Z,100.00
2022-12-09T06:38:50.245Z,100.00
2022-12-09T06:41:17.173Z,100.00
2022-12-09T06:43:44.693Z,100.00
2022-12-09T06:46:17.157Z,100.00
2022-12-09T06:48:44.785Z,100.00
2022-12-09T06:51:12.116Z,100.00
2022-12-09T06:53:39.180Z,100.00
2022-12-09T06:56:11.789Z,100.00
2022-12-09T06:58:41.522Z,100.00
2022-12-09T07:01:13.823Z,100.00
2022-12-09T07:03:45.817Z,100.00
2022-12-09T07:06:37.309Z,100.00
2022-12-09T07:09:08.920Z,100.00
2022-12-09T07:11:36.839Z,100.00
2022-12-09T07:14:04.439Z,100.00
2022-12-09T07:16:31.973Z,100.00
2022-12-09T07:18:59.279Z,100.00
2022-12-09T07:21:27.032Z,100.00
2022-12-09T07:23:55.355Z,100.00
2022-12-09T07:26:22.296Z,100.00
2022-12-09T07:28:50.495Z,100.00
2022-12-09T07:31:26.591Z,100.00
2022-12-09T07:33:55.410Z,100.00
2022-12-09T07:36:25.116Z,100.00
2022-12-09T07:39:03.381Z,100.00
2022-12-09T07:41:30.461Z,100.00
2022-12-09T07:43:57.438Z,100.00
2022-12-09T07:46:27.581Z,100.00
2022-12-09T07:48:56.255Z,100.00
2022-12-09T07:51:25.128Z,100.00
2022-12-09T07:53:52.559Z,100.00
2022-12-09T07:56:20.350Z,100.00
2022-12-09T07:58:48.729Z,100.00
2022-12-09T08:01:18.191Z,100.00
2022-12-09T08:03:45.822Z,100.00
2022-12-09T08:06:16.159Z,100.00
2022-12-09T08:08:44.303Z,100.00
2022-12-09T08:11:17.154Z,100.00
2022-12-09T08:13:44.411Z,100.00
2022-12-09T08:16:13.510Z,100.00
2022-12-09T08:18:42.155Z,100.00
2022-12-09T08:21:13.217Z,100.00
2022-12-09T08:23:40.426Z,100.00
2022-12-09T08:26:10.400Z,100.00
2022-12-09T08:28:37.305Z,100.00
2022-12-09T08:31:16.798Z,100.00
2022-12-09T08:33:44.838Z,100.00
2022-12-09T08:36:33.816Z,100.00
2022-12-09T08:39:02.134Z,100.00
2022-12-09T08:41:38.489Z,100.00
2022-12-09T08:44:11.561Z,100.00
2022-12-09T08:46:41.080Z,100.00
2022-12-09T08:49:09.129Z,100.00
2022-12-09T08:51:36.630Z,100.00
2022-12-09T08:54:04.290Z,100.00
2022-12-09T08:56:31.387Z,100.00
2022-12-09T08:59:01.514Z,100.00
2022-12-09T09:01:33.010Z,100.00
2022-12-09T09:04:09.974Z,100.00
2022-12-09T09:06:39.539Z,100.00
2022-12-09T09:09:09.009Z,100.00
2022-12-09T09:11:36.532Z,100.00
2022-12-09T09:14:09.220Z,100.00
2022-12-09T09:16:39.818Z,100.00
2022-12-09T09:19:07.941Z,100.00
2022-12-09T09:21:35.862Z,100.00
2022-12-09T09:24:07.911Z,100.00
2022-12-09T09:26:35.013Z,100.00
2022-12-09T09:29:02.083Z,100.00
2022-12-09T09:31:29.013Z,100.00
2022-12-09T09:33:55.914Z,100.00
2022-12-09T09:36:25.068Z,100.00
2022-12-09T09:38:55.082Z,100.00
2022-12-09T09:41:47.220Z,100.00
2022-12-09T09:44:23.303Z,100.00
2022-12-09T09:46:52.528Z,100.00
2022-12-09T09:49:36.880Z,100.00
2022-12-09T09:52:18.472Z,100.00
2022-12-09T09:54:45.831Z,100.00
2022-12-09T09:57:40.428Z,100.00
2022-12-09T10:00:46.864Z,100.00
2022-12-09T10:03:41.049Z,100.00
2022-12-09T10:06:36.700Z,100.00
2022-12-09T10:09:11.348Z,100.00
2022-12-09T10:11:56.276Z,100.00
2022-12-09T10:14:36.386Z,100.00
2022-12-09T10:17:15.559Z,100.00
2022-12-09T10:19:56.868Z,100.00
2022-12-09T10:22:29.123Z,100.00
2022-12-09T10:24:59.925Z,100.00
2022-12-09T10:27:45.297Z,100.00
2022-12-09T10:30:15.694Z,100.00
2022-12-09T10:32:43.197Z,100.00
2022-12-09T10:35:30.848Z,100.00
2022-12-09T10:38:10.397Z,100.00
2022-12-09T10:40:37.067Z,100.00
2022-12-09T10:43:41.272Z,100.00
2022-12-09T10:46:22.054Z,100.00
2022-12-09T10:48:50.339Z,100.00
2022-12-09T10:51:19.609Z,100.00
2022-12-09T10:53:56.995Z,100.00
2022-12-09T10:56:30.119Z,100.00
2022-12-09T10:59:22.460Z,100.00
2022-12-09T11:01:52.703Z,100.00
2022-12-09T11:04:29.491Z,99.94
2022-12-09T11:07:05.402Z,100.00
2022-12-09T11:09:38.551Z,100.00
2022-12-09T11:12:13.233Z,99.13
2022-12-09T11:14:49.153Z,99.40
2022-12-09T11:17:15.941Z,97.69
2022-12-09T11:19:47.056Z,96.51
2022-12-09T11:22:32.711Z,97.04
2022-12-09T11:25:23.799Z,98.27
2022-12-09T11:28:00.586Z,97.61
2022-12-09T11:30:32.670Z,97.78
2022-12-09T11:33:06.091Z,96.83
2022-12-09T11:35:45.063Z,97.66
2022-12-09T11:38:30.412Z,98.30
2022-12-09T11:41:11.145Z,97.34
2022-12-09T11:43:56.499Z,96.35
2022-12-09T11:46:27.928Z,94.56
2022-12-09T11:49:15.838Z,92.97
2022-12-09T11:51:46.896Z,92.10
2022-12-09T11:54:18.853Z,92.66
2022-12-09T11:56:50.187Z,92.79
2022-12-09T11:59:26.196Z,94.10
2022-12-09T12:02:11.499Z,94.92
2022-12-09T12:05:02.106Z,95.00
2022-12-09T12:07:47.149Z,94.37
2022-12-09T12:10:23.272Z,93.59
2022-12-09T12:13:14.888Z,93.98
2022-12-09T12:15:57.882Z,95.19
2022-12-09T12:18:29.188Z,95.42
2022-12-09T12:21:26.260Z,96.50
2022-12-09T12:24:17.356Z,95.98
2022-12-09T12:27:04.167Z,93.51
2022-12-09T12:29:59.462Z,91.83
2022-12-09T12:33:11.865Z,92.84
2022-12-09T12:36:11.218Z,92.98
2022-12-09T12:39:03.390Z,93.99
2022-12-09T12:41:37.027Z,94.25
2022-12-09T12:44:56.611Z,94.17
2022-12-09T12:47:42.268Z,94.14
2022-12-09T12:50:30.255Z,93.40
2022-12-09T12:53:05.937Z,92.21
2022-12-09T12:55:50.320Z,91.79
2022-12-09T12:58:19.661Z,90.91
2022-12-09T13:01:15.757Z,90.23
2022-12-09T13:04:06.215Z,91.59
2022-12-09T13:06:51.300Z,92.54
2022-12-09T13:09:20.923Z,93.89
2022-12-09T13:12:19.713Z,94.48
2022-12-09T13:14:54.591Z,94.82
2022-12-09T13:17:27.112Z,95.62
2022-12-09T13:19:58.584Z,93.22
2022-12-09T13:22:33.339Z,94.45
2022-12-09T13:25:11.909Z,92.15
2022-12-09T13:27:52.559Z,89.65
2022-12-09T13:30:27.034Z,89.43
2022-12-09T13:33:30.897Z,87.84
2022-12-09T13:36:35.927Z,86.78
2022-12-09T13:39:03.574Z,88.74
2022-12-09T13:41:30.111Z,88.17
2022-12-09T13:44:05.797Z,88.18
2022-12-09T13:46:33.729Z,87.46
2022-12-09T13:49:11.096Z,88.02
2022-12-09T13:51:46.685Z,88.14
2022-12-09T13:54:17.586Z,88.85
2022-12-09T13:56:48.007Z,90.39
2022-12-09T13:59:40.709Z,90.82
2022-12-09T14:02:31.521Z,90.82
2022-12-09T14:05:18.828Z,91.30
2022-12-09T14:07:51.186Z,90.21
2022-12-09T14:10:37.086Z,89.65
2022-12-09T14:13:26.669Z,90.96
2022-12-09T14:16:15.169Z,90.61
2022-12-09T14:18:42.509Z,90.61
2022-12-09T14:21:18.338Z,91.02
2022-12-09T14:24:11.266Z,91.30
2022-12-09T14:26:43.629Z,90.06
2022-12-09T14:29:10.463Z,89.70
2022-12-09T14:31:45.381Z,89.92
2022-12-09T14:34:34.860Z,90.35
2022-12-09T14:37:28.378Z,90.78
2022-12-09T14:40:03.146Z,91.21
2022-12-09T14:42:41.769Z,91.43
2022-12-09T14:45:28.242Z,90.63
2022-12-09T14:47:56.189Z,91.59
2022-12-09T14:50:24.846Z,91.37
2022-12-09T14:53:01.713Z,92.35
2022-12-09T14:55:30.367Z,92.90
2022-12-09T14:58:00.035Z,92.90
2022-12-09T15:00:41.638Z,92.47
2022-12-09T15:03:33.130Z,92.45
2022-12-09T15:06:05.001Z,92.63
2022-12-09T15:08:37.380Z,92.28
2022-12-09T15:11:34.135Z,92.20
2022-12-09T15:14:23.501Z,92.46
2022-12-09T15:16:50.972Z,92.72
2022-12-09T15:19:51.048Z,92.63
2022-12-09T15:22:24.485Z,93.62
2022-12-09T15:24:52.610Z,93.46
2022-12-09T15:27:22.541Z,93.84
2022-12-09T15:29:49.979Z,93.64
2022-12-09T15:32:26.199Z,93.66
2022-12-09T15:34:54.395Z,94.20
2022-12-09T15:37:28.135Z,94.22
2022-12-09T15:40:10.413Z,93.47
2022-12-09T15:42:41.423Z,93.88
2022-12-09T15:45:15.469Z,94.20
2022-12-09T15:47:56.134Z,94.35
2022-12-09T15:50:46.449Z,95.00
2022-12-09T15:53:16.837Z,94.80
2022-12-09T15:55:51.624Z,95.13
2022-12-09T15:58:28.137Z,95.34
2022-12-09T16:00:55.325Z,95.26
2022-12-09T16:03:26.114Z,96.03
2022-12-09T16:05:55.716Z,96.38
2022-12-09T16:08:23.149Z,96.28
2022-12-09T16:10:51.819Z,96.43
2022-12-09T16:13:21.278Z,96.86
2022-12-09T16:15:52.660Z,97.34
2022-12-09T16:18:25.921Z,96.96
2022-12-09T16:21:17.842Z,97.68
2022-12-09T16:23:47.347Z,97.61
2022-12-09T16:26:23.722Z,98.10
2022-12-09T16:28:59.708Z,97.72
2022-12-09T16:31:26.846Z,97.49
2022-12-09T16:33:54.056Z,97.26
2022-12-09T16:36:28.895Z,97.83
2022-12-09T16:39:07.567Z,97.97
2022-12-09T16:41:52.299Z,98.61
2022-12-09T16:44:31.637Z,98.71
2022-12-09T16:47:12.089Z,98.64
2022-12-09T16:49:40.603Z,98.86
2022-12-09T16:52:11.444Z,99.19
2022-12-09T16:54:38.501Z,98.95
2022-12-09T16:57:05.148Z,99.19
2022-12-09T16:59:37.598Z,98.97
2022-12-09T17:02:09.390Z,99.05
2022-12-09T17:04:36.091Z,99.44
2022-12-09T17:07:02.747Z,99.34
2022-12-09T17:09:29.531Z,99.08
2022-12-09T17:11:56.141Z,98.94
2022-12-09T17:14:22.739Z,98.70
2022-12-09T17:16:49.404Z,97.86
2022-12-09T17:19:16.206Z,97.64
2022-12-09T17:21:42.833Z,98.23
2022-12-09T17:24:11.669Z,98.77
2022-12-09T17:26:38.349Z,99.21
2022-12-09T17:29:07.220Z,100.00
2022-12-09T17:31:33.843Z,99.79
2022-12-09T17:34:00.515Z,99.72
2022-12-09T17:36:27.149Z,100.00
2022-12-09T17:38:53.917Z,100.00
2022-12-09T17:41:23.562Z,99.98
2022-12-09T17:43:50.355Z,100.00
2022-12-09T17:46:17.107Z,100.00
2022-12-09T17:48:43.808Z,100.00
2022-12-09T17:51:13.593Z,99.99
2022-12-09T17:53:41.831Z,98.96
2022-12-09T17:56:13.706Z,98.62
2022-12-09T17:58:40.788Z,98.56
2022-12-09T18:01:20.132Z,98.07
2022-12-09T18:03:55.973Z,98.66
2022-12-09T18:06:26.188Z,98.64
2022-12-09T18:08:53.598Z,99.07
2022-12-09T18:11:22.377Z,99.03
2022-12-09T18:13:50.110Z,99.50
2022-12-09T18:16:17.150Z,99.78
2022-12-09T18:18:44.088Z,99.51
2022-12-09T18:21:15.600Z,99.79
2022-12-09T18:23:43.062Z,99.15
2022-12-09T18:26:13.079Z,99.48
2022-12-09T18:28:40.441Z,99.39
2022-12-09T18:31:08.677Z,99.55
2022-12-09T18:33:36.616Z,99.98
2022-12-09T18:36:21.506Z,100.00
2022-12-09T18:38:48.659Z,100.00
2022-12-09T18:41:20.450Z,100.00
2022-12-09T18:43:48.855Z,100.00
2022-12-09T18:46:25.940Z,100.00
2022-12-09T18:49:23.907Z,100.00
2022-12-09T18:51:52.766Z,100.00
2022-12-09T18:54:26.533Z,100.00
2022-12-09T18:56:54.520Z,100.00
2022-12-09T18:59:22.863Z,100.00
2022-12-09T19:01:50.043Z,100.00
2022-12-09T19:04:19.477Z,100.00
2022-12-09T19:06:47.476Z,100.00
2022-12-09T19:09:20.023Z,100.00
2022-12-09T19:11:48.328Z,100.00
2022-12-09T19:14:16.705Z,100.00
2022-12-09T19:16:43.833Z,100.00
2022-12-09T19:19:16.015Z,100.00
2022-12-09T19:21:43.110Z,100.00
2022-12-09T19:24:18.417Z,100.00
2022-12-09T19:26:45.325Z,100.00
2022-12-09T19:29:13.285Z,100.00
2022-12-09T19:31:45.533Z,100.00
2022-12-09T19:34:13.642Z,100.00
2022-12-09T19:36:40.697Z,100.00
2022-12-09T19:39:08.680Z,100.00
2022-12-09T19:41:37.167Z,100.00
2022-12-09T19:44:04.987Z,100.00
2022-12-09T19:46:32.218Z,100.00
2022-12-09T19:48:59.425Z,100.00
2022-12-09T19:51:27.283Z,100.00
2022-12-09T19:53:55.848Z,100.00
2022-12-09T19:56:22.995Z,100.00
2022-12-09T19:58:50.097Z,100.00
2022-12-09T20:01:22.790Z,100.00
2022-12-09T20:03:52.330Z,100.00
2022-12-09T20:06:19.495Z,100.00
2022-12-09T20:08:46.810Z,100.00
2022-12-09T20:11:16.552Z,100.00
2022-12-09T20:13:43.814Z,100.00
2022-12-09T20:16:14.245Z,100.00
2022-12-09T20:18:41.213Z,100.00
2022-12-09T20:21:10.266Z,100.00
2022-12-09T20:23:38.903Z,100.00
2022-12-09T20:26:16.496Z,100.00
2022-12-09T20:28:44.714Z,100.00
2022-12-09T20:31:15.279Z,100.00
2022-12-09T20:33:42.601Z,100.00
2022-12-09T20:36:15.882Z,100.00
2022-12-09T20:38:44.128Z,100.00
2022-12-09T20:41:13.222Z,100.00
2022-12-09T20:43:42.000Z,100.00
2022-12-09T20:46:17.029Z,100.00
2022-12-09T20:48:44.437Z,100.00
2022-12-09T20:51:17.372Z,100.00
2022-12-09T20:53:45.290Z,100.00
2022-12-09T20:56:12.231Z,100.00
2022-12-09T20:58:39.807Z,100.00
2022-12-09T21:01:16.653Z,100.00
2022-12-09T21:03:43.566Z,100.00
2022-12-09T21:06:11.698Z,100.00
2022-12-09T21:08:38.330Z,100.00
2022-12-09T21:11:10.502Z,100.00
2022-12-09T21:13:40.031Z,100.00
2022-12-09T21:16:09.886Z,100.00
2022-12-09T21:18:36.969Z,100.00
2022-12-09T21:21:04.660Z,100.00
2022-12-09T21:23:34.082Z,100.00
2022-12-09T21:26:09.375Z,100.00
2022-12-09T21:28:37.347Z,100.00
2022-12-09T21:31:13.097Z,100.00
2022-12-09T21:33:40.671Z,100.00
2022-12-09T21:36:09.916Z,100.00
2022-12-09T21:38:37.528Z,100.00
2022-12-09T21:41:06.215Z,100.00
2022-12-09T21:43:34.503Z,100.00
2022-12-09T21:46:02.858Z,100.00
2022-12-09T21:48:29.621Z,100.00
2022-12-09T21:50:57.675Z,100.00
2022-12-09T21:53:24.625Z,100.00
2022-12-09T21:55:53.001Z,100.00
2022-12-09T21:58:20.063Z,100.00
2022-12-09T22:00:46.800Z,100.00
2022-12-09T22:03:13.402Z,100.00
2022-12-09T22:05:39.960Z,100.00
2022-12-09T22:08:06.673Z,100.00
2022-12-09T22:10:36.825Z,100.00
2022-12-09T22:13:03.810Z,100.00
2022-12-09T22:15:31.029Z,100.00
2022-12-09T22:17:57.670Z,100.00
2022-12-09T22:21:00.583Z,100.00
2022-12-09T22:23:11.109Z,100.00
2022-12-09T22:25:39.365Z,100.00
2022-12-09T22:28:06.207Z,100.00
2022-12-09T22:30:36.477Z,100.00
2022-12-09T22:33:03.409Z,100.00
2022-12-09T22:35:30.135Z,100.00
2022-12-09T22:37:59.272Z,100.00
2022-12-09T22:40:26.102Z,100.00
2022-12-09T22:42:52.817Z,100.00
2022-12-09T22:45:19.407Z,100.00
2022-12-09T22:47:46.015Z,100.00
2022-12-09T22:50:13.085Z,100.00
2022-12-09T22:52:39.792Z,100.00
2022-12-09T22:55:06.840Z,100.00
2022-12-09T22:57:33.512Z,100.00
2022-12-09T23:00:00.136Z,100.00
2022-12-09T23:02:26.858Z,100.00
2022-12-09T23:04:53.488Z,100.00
2022-12-09T23:07:20.169Z,100.00
2022-12-09T23:09:46.742Z,100.00
2022-12-09T23:12:14.079Z,100.00
2022-12-09T23:14:40.662Z,100.00
2022-12-09T23:17:07.321Z,100.00
2022-12-09T23:19:34.057Z,100.00
2022-12-09T23:22:00.679Z,100.00
2022-12-09T23:24:27.357Z,100.00
2022-12-09T23:26:55.526Z,100.00
2022-12-09T23:29:22.692Z,100.00
2022-12-09T23:31:49.357Z,100.00
2022-12-09T23:34:16.628Z,100.00
2022-12-09T23:36:44.844Z,100.00
2022-12-09T23:39:16.872Z,100.00
2022-12-09T23:41:44.841Z,100.00
2022-12-09T23:44:15.075Z,100.00
2022-12-09T23:46:42.212Z,100.00
2022-12-09T23:49:09.211Z,100.00
2022-12-09T23:51:39.288Z,100.00
2022-12-09T23:54:08.526Z,100.00
2022-12-09T23:56:38.996Z,100.00
2022-12-09T23:59:08.715Z,100.00
